createdAt,value
2023-01-29T00:00:08.997Z,44.00
2023-01-29T00:02:40.796Z,43.98
2023-01-29T00:05:25.984Z,40.35
2023-01-29T00:07:39.200Z,38.28
2023-01-29T00:10:07.586Z,38.17
2023-01-29T00:12:35.812Z,36.45
2023-01-29T00:15:04.087Z,36.63
2023-01-29T00:17:32.325Z,39.50
2023-01-29T00:20:00.547Z,41.40
2023-01-29T00:22:30.431Z,38.73
2023-01-29T00:24:59.138Z,37.10
2023-01-29T00:27:27.647Z,34.53
2023-01-29T00:30:12.596Z,35.08
2023-01-29T00:32:41.677Z,34.58
2023-01-29T00:35:10.596Z,34.18
2023-01-29T00:37:39.537Z,33.08
2023-01-29T00:40:09.166Z,35.03
2023-01-29T00:42:55.629Z,34.78
2023-01-29T00:45:24.254Z,36.63
2023-01-29T00:47:52.816Z,33.83
2023-01-29T00:50:21.425Z,35.50
2023-01-29T00:52:51.732Z,36.23
2023-01-29T00:55:20.515Z,44.08
2023-01-29T00:57:49.246Z,38.50
2023-01-29T01:00:19.551Z,38.83
2023-01-29T01:03:06.154Z,33.58
2023-01-29T01:05:36.663Z,34.48
2023-01-29T01:08:07.289Z,36.05
2023-01-29T01:10:37.489Z,37.35
2023-01-29T01:13:07.900Z,36.30
2023-01-29T01:15:39.468Z,37.35
2023-01-29T01:18:08.023Z,38.92
2023-01-29T01:20:37.536Z,37.28
2023-01-29T01:23:06.342Z,39.58
2023-01-29T01:25:36.273Z,40.38
2023-01-29T01:28:04.912Z,38.33
2023-01-29T01:30:33.550Z,39.80
2023-01-29T01:33:02.032Z,39.70
2023-01-29T01:35:30.594Z,39.83
2023-01-29T01:37:59.251Z,40.98
2023-01-29T01:40:28.040Z,39.58
2023-01-29T01:42:59.049Z,38.53
2023-01-29T01:45:37.345Z,36.53
2023-01-29T01:48:17.319Z,36.70
2023-01-29T01:51:01.528Z,32.10
2023-01-29T01:53:34.309Z,36.03
2023-01-29T01:56:05.737Z,33.55
2023-01-29T01:58:43.970Z,34.50
2023-01-29T02:01:12.842Z,26.23
2023-01-29T02:04:05.059Z,29.85
2023-01-29T02:06:53.283Z,33.80
2023-01-29T02:09:36.516Z,29.80
2023-01-29T02:12:07.867Z,31.37
2023-01-29T02:14:40.266Z,33.93
2023-01-29T02:17:14.791Z,32.53
2023-01-29T02:19:52.279Z,31.60
2023-01-29T02:22:59.264Z,31.87
2023-01-29T02:25:40.445Z,33.02
2023-01-29T02:28:36.910Z,33.30
2023-01-29T02:31:25.340Z,32.67
2023-01-29T02:33:56.932Z,34.83
2023-01-29T02:36:34.854Z,34.25
2023-01-29T02:39:15.418Z,34.60
2023-01-29T02:41:47.354Z,35.03
2023-01-29T02:44:23.034Z,34.50
2023-01-29T02:46:54.666Z,35.03
2023-01-29T02:49:37.974Z,34.20
2023-01-29T02:52:09.696Z,36.35
2023-01-29T02:54:53.257Z,36.38
2023-01-29T02:57:30.636Z,35.73
2023-01-29T03:00:02.270Z,36.17
2023-01-29T03:02:33.983Z,35.58
2023-01-29T03:05:07.383Z,36.08
2023-01-29T03:07:42.753Z,34.43
2023-01-29T03:10:14.693Z,33.02
2023-01-29T03:12:46.036Z,34.40
2023-01-29T03:15:25.171Z,33.87
2023-01-29T03:18:17.885Z,30.08
2023-01-29T03:20:52.539Z,32.50
2023-01-29T03:23:27.138Z,33.10
2023-01-29T03:26:16.127Z,30.02
2023-01-29T03:29:05.380Z,29.90
2023-01-29T03:31:52.517Z,30.32
2023-01-29T03:34:28.279Z,28.57
2023-01-29T03:37:15.204Z,30.75
2023-01-29T03:39:43.914Z,33.08
2023-01-29T03:42:18.261Z,32.30
2023-01-29T03:45:18.074Z,35.15
2023-01-29T03:47:52.359Z,32.50
2023-01-29T03:50:47.911Z,34.38
2023-01-29T03:53:25.479Z,31.52
2023-01-29T03:56:12.075Z,32.85
2023-01-29T03:58:55.523Z,34.70
2023-01-29T04:01:36.048Z,30.75
2023-01-29T04:04:07.743Z,33.15
2023-01-29T04:06:38.607Z,32.42
2023-01-29T04:09:25.125Z,32.73
2023-01-29T04:11:56.740Z,28.65
2023-01-29T04:14:25.440Z,24.80
2023-01-29T04:16:57.124Z,29.87
2023-01-29T04:19:26.826Z,29.85
2023-01-29T04:21:58.438Z,27.93
2023-01-29T04:24:27.442Z,29.98
2023-01-29T04:27:11.136Z,28.65
2023-01-29T04:29:48.484Z,29.77
2023-01-29T04:32:26.018Z,28.67
2023-01-29T04:35:03.819Z,28.85
2023-01-29T04:37:35.490Z,25.90
2023-01-29T04:40:41.279Z,31.23
2023-01-29T04:43:18.849Z,24.80
2023-01-29T04:45:56.042Z,23.73
2023-01-29T04:48:30.527Z,23.83
2023-01-29T04:51:07.747Z,23.67
2023-01-29T04:53:39.406Z,27.35
2023-01-29T04:56:11.060Z,26.15
2023-01-29T04:58:42.912Z,26.42
2023-01-29T05:01:14.549Z,28.12
2023-01-29T05:03:46.491Z,25.48
2023-01-29T05:06:17.094Z,31.00
2023-01-29T05:08:46.675Z,31.37
2023-01-29T05:11:15.513Z,28.00
2023-01-29T05:13:44.627Z,30.35
2023-01-29T05:16:19.330Z,31.52
2023-01-29T05:18:48.278Z,30.90
2023-01-29T05:21:16.906Z,31.73
2023-01-29T05:23:47.102Z,29.63
2023-01-29T05:26:33.559Z,30.60
2023-01-29T05:29:02.403Z,30.45
2023-01-29T05:31:30.983Z,30.57
2023-01-29T05:33:59.666Z,27.25
2023-01-29T05:36:28.453Z,29.98
2023-01-29T05:38:56.995Z,30.23
2023-01-29T05:41:25.564Z,30.95
2023-01-29T05:43:54.128Z,32.33
2023-01-29T05:46:22.696Z,29.85
2023-01-29T05:48:55.622Z,27.48
2023-01-29T05:51:24.408Z,30.30
2023-01-29T05:53:53.010Z,28.00
2023-01-29T05:56:21.708Z,29.87
2023-01-29T05:58:50.249Z,31.37
2023-01-29T06:01:21.040Z,25.75
2023-01-29T06:03:50.033Z,26.87
2023-01-29T06:06:18.565Z,28.07
2023-01-29T06:08:47.664Z,29.45
2023-01-29T06:11:18.244Z,22.42
2023-01-29T06:13:47.836Z,25.40
2023-01-29T06:16:16.742Z,27.93
2023-01-29T06:18:45.272Z,30.48
2023-01-29T06:21:15.016Z,27.60
2023-01-29T06:23:43.579Z,29.37
2023-01-29T06:26:13.992Z,25.95
2023-01-29T06:28:43.770Z,28.70
2023-01-29T06:31:35.270Z,25.32
2023-01-29T06:33:43.038Z,30.25
2023-01-29T06:36:11.996Z,30.40
2023-01-29T06:38:40.568Z,33.00
2023-01-29T06:41:11.560Z,30.75
2023-01-29T06:43:40.557Z,31.25
2023-01-29T06:46:09.578Z,34.23
2023-01-29T06:48:39.529Z,27.13
2023-01-29T06:51:09.820Z,28.62
2023-01-29T06:53:39.923Z,20.35
2023-01-29T06:56:08.860Z,25.68
2023-01-29T06:58:40.362Z,20.70
2023-01-29T07:01:12.647Z,33.23
2023-01-29T07:03:43.062Z,28.07
2023-01-29T07:06:11.496Z,24.60
2023-01-29T07:08:40.188Z,27.52
2023-01-29T07:11:08.480Z,30.97
2023-01-29T07:13:36.698Z,28.23
2023-01-29T07:16:05.937Z,30.12
2023-01-29T07:18:34.144Z,30.88
2023-01-29T07:21:03.901Z,29.72
2023-01-29T07:23:32.381Z,20.35
2023-01-29T07:26:04.763Z,30.60
2023-01-29T07:28:34.515Z,32.53
2023-01-29T07:31:02.791Z,30.10
2023-01-29T07:33:31.123Z,25.85
2023-01-29T07:35:59.356Z,22.17
2023-01-29T07:38:27.573Z,32.30
2023-01-29T07:40:55.851Z,9.90
2023-01-29T07:43:25.158Z,28.95
2023-01-29T07:45:53.457Z,27.77
2023-01-29T07:48:21.651Z,28.62
2023-01-29T07:50:56.737Z,17.42
2023-01-29T07:53:25.323Z,28.95
2023-01-29T07:55:53.611Z,30.43
2023-01-29T07:58:21.845Z,32.53
2023-01-29T08:00:50.046Z,21.95
2023-01-29T08:03:19.891Z,24.10
2023-01-29T08:05:48.180Z,28.65
2023-01-29T08:08:16.400Z,31.00
2023-01-29T08:10:44.634Z,29.55
2023-01-29T08:13:12.906Z,28.42
2023-01-29T08:15:42.670Z,27.70
2023-01-29T08:18:10.918Z,26.70
2023-01-29T08:20:39.139Z,33.35
2023-01-29T08:23:08.711Z,30.75
2023-01-29T08:25:37.055Z,31.30
2023-01-29T08:28:05.369Z,31.40
2023-01-29T08:30:34.734Z,29.63
2023-01-29T08:33:04.175Z,31.97
2023-01-29T08:35:32.375Z,30.60
2023-01-29T08:38:01.535Z,34.75
2023-01-29T08:40:31.624Z,22.65
2023-01-29T08:43:02.207Z,15.20
2023-01-29T08:45:30.971Z,27.17
2023-01-29T08:47:59.248Z,28.40
2023-01-29T08:50:27.494Z,30.45
2023-01-29T08:52:57.371Z,21.75
2023-01-29T08:55:27.126Z,27.77
2023-01-29T08:57:57.196Z,23.83
2023-01-29T09:00:25.477Z,23.55
2023-01-29T09:02:53.735Z,29.02
2023-01-29T09:05:22.040Z,32.65
2023-01-29T09:07:51.654Z,28.57
2023-01-29T09:10:20.313Z,32.33
2023-01-29T09:12:50.183Z,27.30
2023-01-29T09:15:19.382Z,24.75
2023-01-29T09:17:49.471Z,29.15
2023-01-29T09:20:20.796Z,26.75
2023-01-29T09:22:50.605Z,19.82
2023-01-29T09:25:19.501Z,30.45
2023-01-29T09:27:48.285Z,21.95
2023-01-29T09:30:17.287Z,24.98
2023-01-29T09:32:54.500Z,31.42
2023-01-29T09:35:16.489Z,32.50
2023-01-29T09:37:49.686Z,21.15
2023-01-29T09:40:29.749Z,30.77
2023-01-29T09:43:01.554Z,28.95
2023-01-29T09:45:31.368Z,18.55
2023-01-29T09:48:05.722Z,27.80
2023-01-29T09:50:44.976Z,17.62
2023-01-29T09:53:22.464Z,29.87
2023-01-29T09:55:54.076Z,22.35
2023-01-29T09:58:37.814Z,20.60
2023-01-29T10:01:30.294Z,29.50
2023-01-29T10:04:21.241Z,15.18
2023-01-29T10:07:01.635Z,25.62
2023-01-29T10:09:51.245Z,28.42
2023-01-29T10:12:26.128Z,23.67
2023-01-29T10:15:17.787Z,26.65
2023-01-29T10:17:50.552Z,27.13
2023-01-29T10:20:30.907Z,21.45
2023-01-29T10:23:02.679Z,29.37
2023-01-29T10:25:34.645Z,32.05
2023-01-29T10:28:04.543Z,29.18
2023-01-29T10:30:42.014Z,31.48
2023-01-29T10:33:13.674Z,24.80
2023-01-29T10:35:49.004Z,30.95
2023-01-29T10:38:32.349Z,28.05
2023-01-29T10:41:12.904Z,26.87
2023-01-29T10:43:53.219Z,18.23
2023-01-29T10:46:41.144Z,21.45
2023-01-29T10:49:10.887Z,17.77
2023-01-29T10:52:07.938Z,28.52
2023-01-29T10:54:48.458Z,29.98
2023-01-29T10:57:34.687Z,26.55
2023-01-29T11:00:21.362Z,16.90
2023-01-29T11:02:50.752Z,28.45
2023-01-29T11:05:23.890Z,24.72
2023-01-29T11:07:53.637Z,29.20
2023-01-29T11:10:31.217Z,31.90
2023-01-29T11:12:59.909Z,24.25
2023-01-29T11:15:32.231Z,26.40
2023-01-29T11:18:16.325Z,30.40
2023-01-29T11:20:45.660Z,26.12
2023-01-29T11:23:28.165Z,28.92
2023-01-29T11:25:57.658Z,29.23
2023-01-29T11:28:42.807Z,31.57
2023-01-29T11:31:23.200Z,27.98
2023-01-29T11:33:54.895Z,32.42
2023-01-29T11:36:30.859Z,29.00
2023-01-29T11:39:21.827Z,29.18
2023-01-29T11:41:56.576Z,28.87
2023-01-29T11:44:37.139Z,30.72
2023-01-29T11:47:20.961Z,31.10
2023-01-29T11:49:52.621Z,30.43
2023-01-29T11:52:23.959Z,27.27
2023-01-29T11:54:55.858Z,33.48
2023-01-29T11:57:27.490Z,16.42
2023-01-29T11:59:59.212Z,19.62
2023-01-29T12:02:34.151Z,31.55
2023-01-29T12:05:03.880Z,28.02
2023-01-29T12:07:33.349Z,32.05
2023-01-29T12:10:03.692Z,31.62
2023-01-29T12:12:35.247Z,33.00
2023-01-29T12:15:12.424Z,29.90
2023-01-29T12:17:44.235Z,29.63
2023-01-29T12:20:16.124Z,33.48
2023-01-29T12:22:48.020Z,25.12
2023-01-29T12:25:28.789Z,30.12
2023-01-29T12:28:00.471Z,35.33
2023-01-29T12:30:41.025Z,31.33
2023-01-29T12:33:20.998Z,30.65
2023-01-29T12:35:59.757Z,25.82
2023-01-29T12:38:28.471Z,24.57
2023-01-29T12:41:03.026Z,22.02
2023-01-29T12:43:40.560Z,28.52
2023-01-29T12:46:12.150Z,23.62
2023-01-29T12:48:43.591Z,30.10
2023-01-29T12:51:17.938Z,25.90
2023-01-29T12:53:49.574Z,29.60
2023-01-29T12:56:36.938Z,30.90
2023-01-29T12:59:36.148Z,30.15
2023-01-29T13:02:15.449Z,29.05
2023-01-29T13:04:47.090Z,28.62
2023-01-29T13:07:24.007Z,26.77
2023-01-29T13:09:55.625Z,31.73
2023-01-29T13:12:25.093Z,30.23
2023-01-29T13:14:57.060Z,35.08
2023-01-29T13:17:37.546Z,32.63
2023-01-29T13:20:18.528Z,33.15
2023-01-29T13:22:48.997Z,30.77
2023-01-29T13:25:19.122Z,27.52
2023-01-29T13:27:48.811Z,28.42
2023-01-29T13:30:32.419Z,31.57
2023-01-29T13:33:10.644Z,27.87
2023-01-29T13:35:43.001Z,29.25
2023-01-29T13:38:33.166Z,29.60
2023-01-29T13:41:04.625Z,32.28
2023-01-29T13:43:38.989Z,31.73
2023-01-29T13:46:17.523Z,27.95
2023-01-29T13:48:49.613Z,26.80
2023-01-29T13:51:21.779Z,28.38
2023-01-29T13:53:56.075Z,33.75
2023-01-29T13:56:36.847Z,29.25
2023-01-29T13:59:07.433Z,30.23
2023-01-29T14:01:51.105Z,25.27
2023-01-29T14:04:28.266Z,26.50
2023-01-29T14:06:58.732Z,24.40
2023-01-29T14:09:35.742Z,24.92
2023-01-29T14:12:24.635Z,25.88
2023-01-29T14:14:59.116Z,27.60
2023-01-29T14:17:29.492Z,31.60
2023-01-29T14:20:05.334Z,28.32
2023-01-29T14:22:34.902Z,27.30
2023-01-29T14:25:06.019Z,25.32
2023-01-29T14:27:36.141Z,26.42
2023-01-29T14:30:10.132Z,31.68
2023-01-29T14:32:40.707Z,23.92
2023-01-29T14:35:21.278Z,28.57
2023-01-29T14:37:53.103Z,26.15
2023-01-29T14:40:24.621Z,24.80
2023-01-29T14:43:08.669Z,28.65
2023-01-29T14:45:39.803Z,25.30
2023-01-29T14:48:14.389Z,24.82
2023-01-29T14:50:46.010Z,27.80
2023-01-29T14:53:34.148Z,20.33
2023-01-29T14:56:22.087Z,21.62
2023-01-29T14:58:59.638Z,23.05
2023-01-29T15:01:37.078Z,22.77
2023-01-29T15:04:08.460Z,20.10
2023-01-29T15:06:48.676Z,22.87
2023-01-29T15:09:37.337Z,20.27
2023-01-29T15:12:35.706Z,22.58
2023-01-29T15:15:26.593Z,20.68
2023-01-29T15:18:07.123Z,19.40
2023-01-29T15:20:40.768Z,20.08
2023-01-29T15:23:27.138Z,19.75
2023-01-29T15:26:01.802Z,18.37
2023-01-29T15:28:34.428Z,20.68
2023-01-29T15:31:05.302Z,18.48
2023-01-29T15:33:38.584Z,19.80
2023-01-29T15:36:08.590Z,19.87
2023-01-29T15:38:37.665Z,18.77
2023-01-29T15:41:21.165Z,19.85
2023-01-29T15:43:52.703Z,18.32
2023-01-29T15:46:30.420Z,16.47
2023-01-29T15:49:02.187Z,17.35
2023-01-29T15:51:32.091Z,16.52
2023-01-29T15:54:06.412Z,15.43
2023-01-29T15:56:40.871Z,17.37
2023-01-29T15:59:11.648Z,16.20
2023-01-29T16:01:40.224Z,17.27
2023-01-29T16:04:11.806Z,15.30
2023-01-29T16:06:42.207Z,17.13
2023-01-29T16:09:13.820Z,16.32
2023-01-29T16:11:42.609Z,17.00
2023-01-29T16:14:14.236Z,17.15
2023-01-29T16:16:45.967Z,16.60
2023-01-29T16:19:29.248Z,19.32
2023-01-29T16:22:03.573Z,14.40
2023-01-29T16:24:35.020Z,17.02
2023-01-29T16:27:12.418Z,17.12
2023-01-29T16:29:41.364Z,18.25
2023-01-29T16:32:12.483Z,16.95
2023-01-29T16:34:43.618Z,16.17
2023-01-29T16:37:27.264Z,17.60
2023-01-29T16:39:56.433Z,20.80
2023-01-29T16:42:30.480Z,20.08
2023-01-29T16:45:04.911Z,18.85
2023-01-29T16:47:36.376Z,19.87
2023-01-29T16:50:19.861Z,16.95
2023-01-29T16:52:59.913Z,19.80
2023-01-29T16:55:40.392Z,18.15
2023-01-29T16:58:17.934Z,19.62
2023-01-29T17:00:52.554Z,17.42
2023-01-29T17:03:22.014Z,19.37
2023-01-29T17:05:51.519Z,18.82
2023-01-29T17:08:23.140Z,17.98
2023-01-29T17:10:52.125Z,18.97
2023-01-29T17:13:29.637Z,21.05
2023-01-29T17:16:03.243Z,23.32
2023-01-29T17:18:31.850Z,19.48
2023-01-29T17:21:00.749Z,20.85
2023-01-29T17:23:29.304Z,18.55
2023-01-29T17:25:57.941Z,15.75
2023-01-29T17:28:26.807Z,19.00
2023-01-29T17:31:05.725Z,20.25
2023-01-29T17:33:26.925Z,16.82
2023-01-29T17:35:55.475Z,21.52
2023-01-29T17:38:26.604Z,19.35
2023-01-29T17:41:00.179Z,17.42
2023-01-29T17:43:28.699Z,20.23
2023-01-29T17:45:57.388Z,22.65
2023-01-29T17:48:27.996Z,20.85
2023-01-29T17:50:59.680Z,20.17
2023-01-29T17:53:43.287Z,26.30
2023-01-29T17:55:58.508Z,21.55
2023-01-29T17:58:28.084Z,21.48
2023-01-29T18:00:56.664Z,21.12
2023-01-29T18:03:26.494Z,25.30
2023-01-29T18:05:55.089Z,25.57
2023-01-29T18:08:35.797Z,26.82
2023-01-29T18:11:04.582Z,19.05
2023-01-29T18:13:34.785Z,20.77
2023-01-29T18:16:03.496Z,21.50
2023-01-29T18:18:32.155Z,22.22
2023-01-29T18:21:00.697Z,22.13
2023-01-29T18:23:32.082Z,24.00
2023-01-29T18:26:00.861Z,19.45
2023-01-29T18:28:29.785Z,21.80
2023-01-29T18:30:58.359Z,16.87
2023-01-29T18:33:26.925Z,19.67
2023-01-29T18:35:55.610Z,18.12
2023-01-29T18:38:24.800Z,17.27
2023-01-29T18:40:53.535Z,16.27
2023-01-29T18:43:25.459Z,17.80
2023-01-29T18:45:56.798Z,19.40
2023-01-29T18:48:25.412Z,20.52
2023-01-29T18:50:53.967Z,23.55
2023-01-29T18:53:22.621Z,22.67
2023-01-29T18:56:05.230Z,18.25
2023-01-29T18:58:35.800Z,18.25
2023-01-29T19:01:08.830Z,19.15
2023-01-29T19:03:37.818Z,21.40
2023-01-29T19:06:08.308Z,20.15
2023-01-29T19:08:37.225Z,19.00
2023-01-29T19:11:07.756Z,20.52
2023-01-29T19:13:38.072Z,20.57
2023-01-29T19:16:12.581Z,20.50
2023-01-29T19:18:41.518Z,16.93
2023-01-29T19:21:15.880Z,20.08
2023-01-29T19:23:45.304Z,21.77
2023-01-29T19:26:13.945Z,17.92
2023-01-29T19:28:43.006Z,18.62
2023-01-29T19:31:11.610Z,20.08
2023-01-29T19:33:40.657Z,18.55
2023-01-29T19:36:09.658Z,20.12
2023-01-29T19:38:38.724Z,32.38
2023-01-29T19:41:07.664Z,18.70
2023-01-29T19:43:37.959Z,18.12
2023-01-29T19:46:07.404Z,25.62
2023-01-29T19:48:35.991Z,16.32
2023-01-29T19:51:08.912Z,24.82
2023-01-29T19:53:39.152Z,22.73
2023-01-29T19:56:10.611Z,19.85
2023-01-29T19:58:39.429Z,23.83
2023-01-29T20:01:16.811Z,17.15
2023-01-29T20:03:46.856Z,21.40
2023-01-29T20:06:17.366Z,18.40
2023-01-29T20:08:46.590Z,22.50
2023-01-29T20:11:16.114Z,21.55
2023-01-29T20:13:46.448Z,16.00
2023-01-29T20:16:15.160Z,20.05
2023-01-29T20:18:44.177Z,22.50
2023-01-29T20:21:15.274Z,18.27
2023-01-29T20:23:45.862Z,23.52
2023-01-29T20:26:17.102Z,20.72
2023-01-29T20:28:47.849Z,20.30
2023-01-29T20:31:16.990Z,19.23
2023-01-29T20:33:45.687Z,19.75
2023-01-29T20:36:14.824Z,16.95
2023-01-29T20:38:43.419Z,19.87
2023-01-29T20:41:14.477Z,18.95
2023-01-29T20:43:43.878Z,19.70
2023-01-29T20:46:12.688Z,17.67
2023-01-29T20:48:42.074Z,18.40
2023-01-29T20:51:14.759Z,18.75
2023-01-29T20:53:45.235Z,19.32
2023-01-29T20:56:15.128Z,18.62
2023-01-29T20:58:43.882Z,18.62
2023-01-29T21:01:14.995Z,18.20
2023-01-29T21:03:43.808Z,19.52
2023-01-29T21:06:13.470Z,18.92
2023-01-29T21:08:42.753Z,16.80
2023-01-29T21:11:11.622Z,19.73
2023-01-29T21:13:40.246Z,19.37
2023-01-29T21:16:10.712Z,20.27
2023-01-29T21:18:39.327Z,17.98
2023-01-29T21:21:07.852Z,18.73
2023-01-29T21:23:36.396Z,18.65
2023-01-29T21:26:06.591Z,18.80
2023-01-29T21:28:36.002Z,16.15
2023-01-29T21:31:10.076Z,18.65
2023-01-29T21:33:39.047Z,18.12
2023-01-29T21:36:09.910Z,17.40
2023-01-29T21:38:38.776Z,17.92
2023-01-29T21:41:10.033Z,18.52
2023-01-29T21:43:39.066Z,17.30
2023-01-29T21:46:14.073Z,16.97
2023-01-29T21:48:42.732Z,16.07
2023-01-29T21:51:11.023Z,16.62
2023-01-29T21:53:39.300Z,16.48
2023-01-29T21:56:07.609Z,16.60
2023-01-29T21:58:35.838Z,15.83
2023-01-29T22:01:18.099Z,14.98
2023-01-29T22:03:33.899Z,15.70
2023-01-29T22:06:02.230Z,17.10
2023-01-29T22:08:31.746Z,16.70
2023-01-29T22:11:01.524Z,15.93
2023-01-29T22:13:29.810Z,16.70
2023-01-29T22:15:58.455Z,16.67
2023-01-29T22:18:27.325Z,17.02
2023-01-29T22:20:56.111Z,15.63
2023-01-29T22:23:25.307Z,16.48
2023-01-29T22:25:53.908Z,16.45
2023-01-29T22:28:22.614Z,15.28
2023-01-29T22:30:51.253Z,16.52
2023-01-29T22:33:20.532Z,17.35
2023-01-29T22:35:52.611Z,18.67
2023-01-29T22:38:22.554Z,18.27
2023-01-29T22:40:54.139Z,18.48
2023-01-29T22:43:22.635Z,17.23
2023-01-29T22:45:50.817Z,20.10
2023-01-29T22:48:19.255Z,17.45
2023-01-29T22:50:49.053Z,17.37
2023-01-29T22:53:17.650Z,18.48
2023-01-29T22:55:54.674Z,19.23
2023-01-29T22:58:23.275Z,18.37
2023-01-29T23:00:52.251Z,17.20
2023-01-29T23:03:20.864Z,18.52
2023-01-29T23:05:49.441Z,18.32
2023-01-29T23:08:18.130Z,16.95
2023-01-29T23:10:46.692Z,18.15
2023-01-29T23:13:15.513Z,16.15
2023-01-29T23:15:44.242Z,16.12
2023-01-29T23:18:12.764Z,16.02
2023-01-29T23:20:41.338Z,16.50
2023-01-29T23:23:09.876Z,16.30
2023-01-29T23:25:56.044Z,17.15
2023-01-29T23:28:24.574Z,17.23
2023-01-29T23:30:53.162Z,18.67
2023-01-29T23:33:21.877Z,17.65
2023-01-29T23:35:50.411Z,17.67
2023-01-29T23:38:18.998Z,16.95
2023-01-29T23:40:47.985Z,15.63
2023-01-29T23:43:16.521Z,18.05
2023-01-29T23:45:45.108Z,17.55
2023-01-29T23:48:13.669Z,16.45
2023-01-29T23:50:42.228Z,16.85
2023-01-29T23:53:10.785Z,17.52
2023-01-29T23:55:39.491Z,16.57
2023-01-29T23:58:08.182Z,16.97
